createdAt,value
2022-12-04T00:01:32.822Z,107.33
2022-12-04T00:04:02.353Z,102.73
2022-12-04T00:06:30.832Z,97.07
2022-12-04T00:09:00.731Z,94.33
2022-12-04T00:11:30.368Z,94.77
2022-12-04T00:14:06.132Z,98.20
2022-12-04T00:16:35.612Z,83.27
2022-12-04T00:19:03.692Z,130.47
2022-12-04T00:21:32.113Z,109.53
2022-12-04T00:24:01.539Z,95.40
2022-12-04T00:26:31.021Z,86.47
2022-12-04T00:28:59.239Z,138.53
2022-12-04T00:31:29.862Z,95.50
2022-12-04T00:33:58.525Z,95.30
2022-12-04T00:36:29.412Z,94.57
2022-12-04T00:38:59.491Z,98.10
2022-12-04T00:41:31.979Z,99.97
2022-12-04T00:44:00.082Z,102.23
2022-12-04T00:46:28.808Z,124.60
2022-12-04T00:48:58.916Z,94.77
2022-12-04T00:51:27.321Z,136.93
2022-12-04T00:53:55.373Z,93.73
2022-12-04T00:56:26.019Z,85.67
2022-12-04T00:58:57.308Z,96.43
2022-12-04T01:01:26.992Z,127.53
2022-12-04T01:03:56.348Z,109.57
2022-12-04T01:06:26.462Z,110.50
2022-12-04T01:08:55.707Z,120.80
2022-12-04T01:11:24.816Z,97.47
2022-12-04T01:13:53.184Z,116.17
2022-12-04T01:16:26.187Z,96.87
2022-12-04T01:18:54.333Z,113.73
2022-12-04T01:21:23.116Z,128.67
2022-12-04T01:23:51.313Z,128.73
2022-12-04T01:26:20.495Z,132.30
2022-12-04T01:28:48.522Z,115.03
2022-12-04T01:31:18.758Z,153.40
2022-12-04T01:33:48.936Z,120.60
2022-12-04T01:36:23.717Z,129.47
2022-12-04T01:38:51.956Z,147.73
2022-12-04T01:41:22.155Z,155.17
2022-12-04T01:44:13.022Z,171.33
2022-12-04T01:46:41.471Z,209.33
2022-12-04T01:49:16.180Z,191.13
2022-12-04T01:51:47.135Z,200.17
2022-12-04T01:54:19.855Z,165.50
2022-12-04T01:56:52.995Z,102.70
2022-12-04T01:59:25.228Z,193.37
2022-12-04T02:01:58.391Z,142.97
2022-12-04T02:04:29.023Z,91.03
2022-12-04T02:06:56.992Z,106.40
2022-12-04T02:09:27.122Z,109.27
2022-12-04T02:12:02.814Z,132.87
2022-12-04T02:14:37.987Z,127.27
2022-12-04T02:17:13.365Z,88.70
2022-12-04T02:20:11.071Z,134.63
2022-12-04T02:22:55.690Z,159.70
2022-12-04T02:25:33.210Z,176.30
2022-12-04T02:28:09.413Z,158.40
2022-12-04T02:30:41.246Z,178.43
2022-12-04T02:33:16.303Z,149.20
2022-12-04T02:35:48.893Z,144.10
2022-12-04T02:38:24.611Z,125.27
2022-12-04T02:40:58.163Z,163.80
2022-12-04T02:43:31.425Z,120.83
2022-12-04T02:46:05.626Z,91.23
2022-12-04T02:48:37.526Z,168.60
2022-12-04T02:51:08.723Z,164.53
2022-12-04T02:53:42.680Z,127.80
2022-12-04T02:56:13.932Z,114.83
2022-12-04T02:58:48.084Z,110.80
2022-12-04T03:01:21.708Z,106.73
2022-12-04T03:03:54.052Z,128.97
2022-12-04T03:06:25.076Z,142.50
2022-12-04T03:08:59.601Z,97.17
2022-12-04T03:11:31.646Z,110.70
2022-12-04T03:14:09.365Z,106.30
2022-12-04T03:16:40.717Z,113.13
2022-12-04T03:19:13.842Z,98.37
2022-12-04T03:21:47.161Z,99.23
2022-12-04T03:24:21.051Z,109.87
2022-12-04T03:26:53.010Z,117.50
2022-12-04T03:29:25.411Z,114.57
2022-12-04T03:32:01.961Z,136.13
2022-12-04T03:34:35.670Z,122.63
2022-12-04T03:37:10.426Z,126.97
2022-12-04T03:39:47.126Z,130.80
2022-12-04T03:42:19.352Z,113.83
2022-12-04T03:44:55.575Z,93.97
2022-12-04T03:47:31.327Z,158.50
2022-12-04T03:50:03.893Z,111.57
2022-12-04T03:52:40.463Z,97.47
2022-12-04T03:55:15.267Z,107.57
2022-12-04T03:57:46.387Z,114.13
2022-12-04T04:00:18.992Z,102.17
2022-12-04T04:02:51.818Z,89.53
2022-12-04T04:05:21.756Z,63.30
2022-12-04T04:07:53.546Z,115.90
2022-12-04T04:10:25.665Z,97.80
2022-12-04T04:13:12.342Z,104.83
2022-12-04T04:16:08.596Z,122.43
2022-12-04T04:18:54.501Z,78.53
2022-12-04T04:21:45.884Z,100.37
2022-12-04T04:24:26.417Z,85.67
2022-12-04T04:26:56.243Z,95.27
2022-12-04T04:29:24.240Z,71.27
2022-12-04T04:32:00.559Z,94.17
2022-12-04T04:34:35.740Z,88.50
2022-12-04T04:37:12.970Z,81.07
2022-12-04T04:39:46.095Z,68.20
2022-12-04T04:42:22.215Z,88.03
2022-12-04T04:44:57.450Z,122.70
2022-12-04T04:47:31.791Z,119.43
2022-12-04T04:50:02.936Z,87.63
2022-12-04T04:52:32.386Z,150.63
2022-12-04T04:55:02.497Z,90.87
2022-12-04T04:57:32.116Z,95.67
2022-12-04T05:00:01.030Z,97.87
2022-12-04T05:02:30.442Z,129.43
2022-12-04T05:04:58.499Z,94.47
2022-12-04T05:07:26.578Z,108.83
2022-12-04T05:09:55.177Z,89.87
2022-12-04T05:12:23.413Z,93.60
2022-12-04T05:14:51.440Z,85.73
2022-12-04T05:17:19.414Z,102.33
2022-12-04T05:19:55.433Z,110.07
2022-12-04T05:22:26.245Z,109.27
2022-12-04T05:24:54.705Z,106.73
2022-12-04T05:27:23.274Z,100.37
2022-12-04T05:29:54.201Z,96.83
2022-12-04T05:32:23.725Z,85.40
2022-12-04T05:34:54.865Z,75.13
2022-12-04T05:37:23.377Z,96.67
2022-12-04T05:39:51.428Z,76.73
2022-12-04T05:42:19.521Z,89.47
2022-12-04T05:44:48.834Z,86.10
2022-12-04T05:47:16.967Z,114.30
2022-12-04T05:49:45.207Z,105.70
2022-12-04T05:52:14.722Z,104.20
2022-12-04T05:54:42.735Z,65.23
2022-12-04T05:57:10.776Z,60.73
2022-12-04T05:59:38.995Z,71.13
2022-12-04T06:02:07.102Z,63.03
2022-12-04T06:04:35.132Z,59.37
2022-12-04T06:07:03.444Z,73.80
2022-12-04T06:09:32.839Z,76.17
2022-12-04T06:12:00.809Z,62.87
2022-12-04T06:14:29.206Z,99.73
2022-12-04T06:16:57.331Z,57.37
2022-12-04T06:19:25.472Z,86.77
2022-12-04T06:21:54.513Z,75.37
2022-12-04T06:24:24.419Z,59.90
2022-12-04T06:27:26.294Z,73.20
2022-12-04T06:29:45.406Z,60.77
2022-12-04T06:32:19.461Z,67.87
2022-12-04T06:34:52.625Z,62.83
2022-12-04T06:37:20.829Z,63.43
2022-12-04T06:39:48.881Z,68.70
2022-12-04T06:42:18.691Z,94.83
2022-12-04T06:44:46.707Z,74.97
2022-12-04T06:47:14.707Z,59.97
2022-12-04T06:49:42.723Z,97.10
2022-12-04T06:52:10.734Z,65.17
2022-12-04T06:54:38.785Z,73.93
2022-12-04T06:57:06.800Z,66.87
2022-12-04T06:59:37.409Z,67.73
2022-12-04T07:02:05.531Z,61.50
2022-12-04T07:04:33.566Z,71.43
2022-12-04T07:07:01.557Z,70.07
2022-12-04T07:09:29.552Z,62.90
2022-12-04T07:11:58.065Z,62.23
2022-12-04T07:14:26.093Z,61.40
2022-12-04T07:16:55.725Z,57.87
2022-12-04T07:19:23.759Z,61.17
2022-12-04T07:21:51.812Z,60.60
2022-12-04T07:24:19.847Z,50.13
2022-12-04T07:26:47.979Z,56.60
2022-12-04T07:29:16.016Z,51.60
2022-12-04T07:31:44.407Z,52.63
2022-12-04T07:34:14.144Z,51.13
2022-12-04T07:36:42.192Z,46.57
2022-12-04T07:39:10.362Z,43.83
2022-12-04T07:41:38.474Z,50.83
2022-12-04T07:44:06.652Z,49.20
2022-12-04T07:46:34.769Z,49.57
2022-12-04T07:49:02.935Z,49.60
2022-12-04T07:51:32.292Z,49.70
2022-12-04T07:54:03.655Z,46.60
2022-12-04T07:56:32.658Z,56.47
2022-12-04T07:59:01.143Z,49.67
2022-12-04T08:01:29.240Z,49.40
2022-12-04T08:03:59.737Z,47.10
2022-12-04T08:06:29.601Z,44.90
2022-12-04T08:08:59.515Z,47.57
2022-12-04T08:11:29.701Z,50.07
2022-12-04T08:13:58.889Z,49.67
2022-12-04T08:16:28.266Z,48.37
2022-12-04T08:18:56.953Z,50.23
2022-12-04T08:21:27.056Z,48.20
2022-12-04T08:23:57.935Z,50.60
2022-12-04T08:26:29.575Z,51.27
2022-12-04T08:29:02.392Z,48.87
2022-12-04T08:31:32.913Z,43.37
2022-12-04T08:34:03.189Z,44.83
2022-12-04T08:36:31.560Z,51.53
2022-12-04T08:38:59.708Z,48.60
2022-12-04T08:41:29.146Z,46.57
2022-12-04T08:43:57.911Z,46.17
2022-12-04T08:46:27.523Z,45.70
2022-12-04T08:48:56.104Z,44.37
2022-12-04T08:51:26.198Z,42.27
2022-12-04T08:53:56.405Z,44.40
2022-12-04T08:56:24.719Z,46.23
2022-12-04T08:58:54.834Z,43.10
2022-12-04T09:01:23.425Z,43.33
2022-12-04T09:03:51.620Z,40.90
2022-12-04T09:06:19.820Z,37.53
2022-12-04T09:08:47.935Z,40.13
2022-12-04T09:11:18.250Z,41.27
2022-12-04T09:13:47.115Z,39.10
2022-12-04T09:16:18.646Z,41.73
2022-12-04T09:18:47.032Z,40.53
2022-12-04T09:21:17.316Z,42.40
2022-12-04T09:23:45.797Z,41.13
2022-12-04T09:26:23.667Z,39.17
2022-12-04T09:28:52.697Z,36.10
2022-12-04T09:31:23.403Z,36.67
2022-12-04T09:33:51.876Z,37.13
2022-12-04T09:36:20.222Z,34.80
2022-12-04T09:38:50.678Z,40.70
2022-12-04T09:41:40.033Z,35.87
2022-12-04T09:44:11.457Z,35.00
2022-12-04T09:46:50.952Z,38.93
2022-12-04T09:49:26.919Z,39.90
2022-12-04T09:51:57.953Z,39.27
2022-12-04T09:54:30.739Z,37.00
2022-12-04T09:57:02.375Z,40.93
2022-12-04T09:59:33.183Z,38.53
2022-12-04T10:02:16.945Z,37.33
2022-12-04T10:04:45.020Z,33.77
2022-12-04T10:07:17.711Z,36.50
2022-12-04T10:09:54.708Z,35.30
2022-12-04T10:12:29.415Z,35.70
2022-12-04T10:15:07.849Z,33.70
2022-12-04T10:17:51.499Z,31.93
2022-12-04T10:20:32.490Z,33.77
2022-12-04T10:23:13.589Z,30.63
2022-12-04T10:25:45.452Z,31.83
2022-12-04T10:28:22.136Z,30.80
2022-12-04T10:30:52.317Z,34.13
2022-12-04T10:33:36.427Z,32.80
2022-12-04T10:36:05.270Z,30.13
2022-12-04T10:38:40.173Z,34.90
2022-12-04T10:41:16.379Z,34.10
2022-12-04T10:43:46.717Z,35.07
2022-12-04T10:46:17.845Z,33.63
2022-12-04T10:48:51.425Z,28.80
2022-12-04T10:51:21.566Z,28.30
2022-12-04T10:53:50.299Z,31.03
2022-12-04T10:56:20.369Z,29.53
2022-12-04T10:59:02.354Z,32.50
2022-12-04T11:01:32.050Z,30.63
2022-12-04T11:04:04.807Z,32.53
2022-12-04T11:06:33.771Z,30.03
2022-12-04T11:09:02.847Z,27.87
2022-12-04T11:11:33.038Z,36.80
2022-12-04T11:14:06.281Z,31.07
2022-12-04T11:16:41.379Z,29.40
2022-12-04T11:19:30.276Z,27.83
2022-12-04T11:22:02.639Z,30.17
2022-12-04T11:24:34.327Z,29.20
2022-12-04T11:27:03.573Z,31.03
2022-12-04T11:29:34.268Z,28.83
2022-12-04T11:32:07.588Z,32.37
2022-12-04T11:34:41.610Z,28.83
2022-12-04T11:37:24.257Z,29.63
2022-12-04T11:39:53.503Z,28.33
2022-12-04T11:42:25.806Z,27.67
2022-12-04T11:44:56.128Z,29.27
2022-12-04T11:47:27.260Z,28.90
2022-12-04T11:50:11.431Z,30.53
2022-12-04T11:52:51.481Z,30.83
2022-12-04T11:55:29.408Z,31.63
2022-12-04T11:58:16.324Z,30.03
2022-12-04T12:00:51.253Z,30.83
2022-12-04T12:03:24.291Z,31.10
2022-12-04T12:06:14.192Z,31.93
2022-12-04T12:08:56.617Z,32.37
2022-12-04T12:11:31.704Z,30.77
2022-12-04T12:14:09.376Z,33.90
2022-12-04T12:16:51.352Z,33.30
2022-12-04T12:19:35.295Z,33.80
2022-12-04T12:22:13.854Z,32.47
2022-12-04T12:24:53.053Z,32.53
2022-12-04T12:27:39.422Z,32.63
2022-12-04T12:30:13.374Z,32.37
2022-12-04T12:33:08.655Z,32.03
2022-12-04T12:35:40.780Z,35.13
2022-12-04T12:38:15.960Z,33.70
2022-12-04T12:40:47.469Z,33.83
2022-12-04T12:43:21.909Z,35.23
2022-12-04T12:45:59.381Z,37.33
2022-12-04T12:48:32.260Z,34.67
2022-12-04T12:51:28.606Z,35.07
2022-12-04T12:53:59.279Z,38.83
2022-12-04T12:56:34.354Z,39.93
2022-12-04T12:59:06.997Z,34.87
2022-12-04T13:01:44.572Z,37.40
2022-12-04T13:04:19.270Z,38.87
2022-12-04T13:06:54.820Z,37.20
2022-12-04T13:09:29.863Z,38.47
2022-12-04T13:12:03.666Z,36.83
2022-12-04T13:14:31.761Z,38.23
2022-12-04T13:17:03.693Z,37.97
2022-12-04T13:19:43.172Z,37.10
2022-12-04T13:22:19.679Z,38.37
2022-12-04T13:25:09.353Z,38.00
2022-12-04T13:27:47.757Z,37.87
2022-12-04T13:30:20.154Z,37.50
2022-12-04T13:33:16.965Z,38.10
2022-12-04T13:36:04.102Z,38.33
2022-12-04T13:38:41.242Z,39.07
2022-12-04T13:41:19.338Z,40.07
2022-12-04T13:43:51.749Z,39.60
2022-12-04T13:46:28.314Z,44.07
2022-12-04T13:49:07.852Z,43.07
2022-12-04T13:51:39.495Z,42.93
2022-12-04T13:54:28.569Z,43.23
2022-12-04T13:57:11.159Z,47.23
2022-12-04T13:59:40.841Z,43.97
2022-12-04T14:02:28.821Z,45.67
2022-12-04T14:05:00.965Z,49.07
2022-12-04T14:07:32.708Z,42.17
2022-12-04T14:10:04.606Z,43.27
2022-12-04T14:12:37.630Z,40.90
2022-12-04T14:15:09.679Z,40.27
2022-12-04T14:17:40.568Z,38.23
2022-12-04T14:20:25.133Z,39.20
2022-12-04T14:22:53.388Z,39.50
2022-12-04T14:25:35.291Z,39.63
2022-12-04T14:28:24.037Z,37.70
2022-12-04T14:31:04.899Z,37.07
2022-12-04T14:33:36.214Z,33.53
2022-12-04T14:36:09.185Z,35.87
2022-12-04T14:38:37.720Z,35.67
2022-12-04T14:41:05.855Z,33.27
2022-12-04T14:43:39.402Z,33.73
2022-12-04T14:46:14.680Z,30.47
2022-12-04T14:48:55.123Z,30.67
2022-12-04T14:51:31.225Z,31.90
2022-12-04T14:54:07.352Z,33.67
2022-12-04T14:56:47.944Z,31.93
2022-12-04T14:59:20.879Z,36.30
2022-12-04T15:01:51.383Z,37.33
2022-12-04T15:04:24.737Z,36.40
2022-12-04T15:06:59.936Z,36.97
2022-12-04T15:09:58.445Z,37.03
2022-12-04T15:12:36.344Z,33.60
2022-12-04T15:15:19.039Z,39.23
2022-12-04T15:17:58.583Z,40.53
2022-12-04T15:20:28.923Z,39.27
2022-12-04T15:22:58.866Z,37.90
2022-12-04T15:25:30.698Z,42.17
2022-12-04T15:28:07.533Z,39.00
2022-12-04T15:30:42.184Z,46.00
2022-12-04T15:33:17.766Z,43.87
2022-12-04T15:35:52.888Z,44.70
2022-12-04T15:38:21.477Z,47.50
2022-12-04T15:40:54.552Z,38.20
2022-12-04T15:43:31.094Z,36.80
2022-12-04T15:46:00.825Z,37.47
2022-12-04T15:48:31.039Z,37.33
2022-12-04T15:51:02.070Z,42.93
2022-12-04T15:53:32.547Z,37.77
2022-12-04T15:56:04.244Z,38.07
2022-12-04T15:58:33.759Z,38.07
2022-12-04T16:01:05.813Z,34.87
2022-12-04T16:03:39.164Z,40.03
2022-12-04T16:06:15.824Z,35.30
2022-12-04T16:08:45.330Z,37.07
2022-12-04T16:11:31.040Z,36.50
2022-12-04T16:14:16.524Z,36.17
2022-12-04T16:16:48.797Z,32.43
2022-12-04T16:19:25.586Z,36.80
2022-12-04T16:21:53.842Z,34.63
2022-12-04T16:24:22.647Z,39.17
2022-12-04T16:26:52.439Z,37.60
2022-12-04T16:29:20.612Z,38.60
2022-12-04T16:31:51.616Z,35.43
2022-12-04T16:34:20.031Z,40.47
2022-12-04T16:36:48.032Z,39.60
2022-12-04T16:39:16.088Z,36.97
2022-12-04T16:41:44.259Z,37.07
2022-12-04T16:44:17.360Z,38.30
2022-12-04T16:46:45.896Z,36.30
2022-12-04T16:49:15.420Z,37.80
2022-12-04T16:51:49.828Z,38.20
2022-12-04T16:54:18.100Z,38.67
2022-12-04T16:56:46.087Z,40.87
2022-12-04T16:59:15.350Z,40.00
2022-12-04T17:01:47.573Z,39.93
2022-12-04T17:04:17.963Z,39.57
2022-12-04T17:06:46.567Z,38.77
2022-12-04T17:09:15.564Z,42.73
2022-12-04T17:11:43.732Z,39.33
2022-12-04T17:14:12.217Z,38.93
2022-12-04T17:16:42.801Z,41.90
2022-12-04T17:19:12.471Z,41.13
2022-12-04T17:21:41.951Z,40.80
2022-12-04T17:24:10.114Z,40.43
2022-12-04T17:26:40.980Z,40.53
2022-12-04T17:29:09.063Z,41.97
2022-12-04T17:31:38.275Z,40.23
2022-12-04T17:34:06.308Z,44.70
2022-12-04T17:36:37.369Z,42.10
2022-12-04T17:39:08.202Z,41.67
2022-12-04T17:41:36.261Z,37.87
2022-12-04T17:44:04.505Z,41.60
2022-12-04T17:46:32.558Z,39.10
2022-12-04T17:49:06.620Z,41.07
2022-12-04T17:51:36.093Z,42.93
2022-12-04T17:54:04.366Z,43.77
2022-12-04T17:56:34.156Z,46.83
2022-12-04T17:59:02.187Z,43.30
2022-12-04T18:01:31.554Z,47.23
2022-12-04T18:04:04.637Z,43.30
2022-12-04T18:06:35.023Z,45.87
2022-12-04T18:09:03.772Z,49.07
2022-12-04T18:11:37.498Z,44.17
2022-12-04T18:14:12.032Z,43.90
2022-12-04T18:16:43.238Z,47.50
2022-12-04T18:19:12.308Z,46.23
2022-12-04T18:21:40.390Z,43.63
2022-12-04T18:24:10.448Z,45.20
2022-12-04T18:26:43.175Z,46.23
2022-12-04T18:29:15.478Z,42.80
2022-12-04T18:31:43.563Z,45.50
2022-12-04T18:34:11.964Z,45.23
2022-12-04T18:36:41.880Z,43.07
2022-12-04T18:39:13.253Z,46.20
2022-12-04T18:41:43.028Z,42.43
2022-12-04T18:44:11.607Z,42.50
2022-12-04T18:46:39.877Z,46.60
2022-12-04T18:49:11.617Z,48.40
2022-12-04T18:51:42.281Z,45.17
2022-12-04T18:54:14.037Z,44.50
2022-12-04T18:56:43.911Z,44.43
2022-12-04T18:59:14.368Z,46.27
2022-12-04T19:01:43.513Z,46.47
2022-12-04T19:04:14.180Z,43.67
2022-12-04T19:06:44.048Z,39.93
2022-12-04T19:09:17.872Z,39.97
2022-12-04T19:11:47.884Z,45.73
2022-12-04T19:14:23.074Z,43.30
2022-12-04T19:16:51.906Z,43.53
2022-12-04T19:19:20.455Z,46.13
2022-12-04T19:21:48.605Z,40.97
2022-12-04T19:24:16.972Z,50.17
2022-12-04T19:26:47.667Z,46.90
2022-12-04T19:29:16.131Z,46.43
2022-12-04T19:31:45.751Z,46.63
2022-12-04T19:34:14.916Z,46.43
2022-12-04T19:36:45.309Z,45.43
2022-12-04T19:39:13.451Z,44.83
2022-12-04T19:41:41.771Z,44.67
2022-12-04T19:44:46.882Z,53.20
2022-12-04T19:46:59.616Z,48.83
2022-12-04T19:49:28.057Z,45.93
2022-12-04T19:51:56.379Z,50.73
2022-12-04T19:54:25.626Z,47.03
2022-12-04T19:56:53.956Z,50.83
2022-12-04T19:59:33.178Z,53.30
2022-12-04T20:02:08.298Z,47.17
2022-12-04T20:04:36.440Z,56.50
2022-12-04T20:07:11.375Z,50.67
2022-12-04T20:09:40.849Z,51.83
2022-12-04T20:12:09.462Z,44.07
2022-12-04T20:14:41.581Z,57.33
2022-12-04T20:17:11.097Z,45.20
2022-12-04T20:19:39.261Z,47.97
2022-12-04T20:22:07.414Z,48.90
2022-12-04T20:24:35.540Z,49.20
2022-12-04T20:27:03.811Z,44.83
2022-12-04T20:29:31.950Z,45.90
2022-12-04T20:32:01.538Z,42.23
2022-12-04T20:34:29.758Z,47.33
2022-12-04T20:36:58.962Z,45.53
2022-12-04T20:39:27.202Z,46.13
2022-12-04T20:41:55.347Z,56.33
2022-12-04T20:44:25.417Z,56.00
2022-12-04T20:46:53.448Z,45.37
2022-12-04T20:49:22.889Z,57.87
2022-12-04T20:51:52.736Z,48.57
2022-12-04T20:54:22.713Z,50.70
2022-12-04T20:56:52.893Z,50.53
2022-12-04T20:59:23.055Z,61.07
2022-12-04T21:01:52.548Z,60.70
2022-12-04T21:04:25.049Z,52.83
2022-12-04T21:06:53.079Z,59.03
2022-12-04T21:09:24.617Z,57.10
2022-12-04T21:11:54.258Z,47.80
2022-12-04T21:14:41.683Z,48.73
2022-12-04T21:17:16.482Z,62.43
2022-12-04T21:19:46.938Z,59.43
2022-12-04T21:22:15.828Z,61.00
2022-12-04T21:24:43.822Z,65.17
2022-12-04T21:27:17.414Z,51.77
2022-12-04T21:29:47.091Z,62.07
2022-12-04T21:32:15.441Z,50.43
2022-12-04T21:34:45.248Z,59.73
2022-12-04T21:37:14.673Z,61.60
2022-12-04T21:39:43.904Z,57.47
2022-12-04T21:42:29.234Z,55.20
2022-12-04T21:44:59.267Z,55.87
2022-12-04T21:47:27.752Z,56.00
2022-12-04T21:49:58.095Z,60.70
2022-12-04T21:52:26.792Z,47.70
2022-12-04T21:54:56.458Z,54.30
2022-12-04T21:57:24.964Z,47.80
2022-12-04T21:59:53.421Z,48.63
2022-12-04T22:02:22.059Z,52.30
2022-12-04T22:04:50.250Z,52.07
2022-12-04T22:07:19.660Z,54.43
2022-12-04T22:09:47.696Z,51.13
2022-12-04T22:12:48.966Z,45.23
2022-12-04T22:15:06.911Z,60.47
2022-12-04T22:17:34.893Z,49.47
2022-12-04T22:20:02.940Z,48.30
2022-12-04T22:22:32.278Z,46.77
2022-12-04T22:25:01.613Z,43.27
2022-12-04T22:27:29.883Z,54.00
2022-12-04T22:29:58.069Z,45.47
2022-12-04T22:32:26.050Z,50.23
2022-12-04T22:34:54.035Z,51.27
2022-12-04T22:37:22.024Z,55.83
2022-12-04T22:39:51.454Z,53.27
2022-12-04T22:42:19.460Z,45.10
2022-12-04T22:44:47.455Z,52.13
2022-12-04T22:47:15.740Z,44.53
2022-12-04T22:49:43.727Z,42.43
2022-12-04T22:52:11.756Z,45.20
2022-12-04T22:54:39.719Z,48.87
2022-12-04T22:57:09.079Z,60.50
2022-12-04T22:59:37.544Z,47.03
2022-12-04T23:02:05.542Z,38.90
2022-12-04T23:04:33.640Z,45.50
2022-12-04T23:07:01.700Z,60.00
2022-12-04T23:09:29.860Z,43.43
2022-12-04T23:11:58.117Z,63.47
2022-12-04T23:14:28.849Z,48.03
2022-12-04T23:16:57.242Z,60.37
2022-12-04T23:19:25.906Z,54.57
2022-12-04T23:21:57.203Z,47.00
2022-12-04T23:24:25.625Z,41.37
2022-12-04T23:26:53.686Z,60.20
2022-12-04T23:29:51.601Z,56.93
2022-12-04T23:32:12.297Z,50.70
2022-12-04T23:34:40.426Z,42.97
2022-12-04T23:37:08.471Z,60.87
2022-12-04T23:39:36.731Z,50.43
2022-12-04T23:42:05.070Z,62.77
2022-12-04T23:44:33.146Z,57.83
2022-12-04T23:47:01.188Z,46.93
2022-12-04T23:49:30.595Z,76.03
2022-12-04T23:51:58.579Z,55.90
2022-12-04T23:54:27.265Z,69.40
2022-12-04T23:56:55.269Z,51.87
2022-12-04T23:59:23.242Z,71.63
